sensor_id;sensor_type;location;lat;lon;timestamp;temperature;humidity
22436;DHT22;11385;50.822;4.324;2023-03-11T00:02:20;2.30;99.90
22436;DHT22;11385;50.822;4.324;2023-03-11T00:04:47;2.20;99.90
22436;DHT22;11385;50.822;4.324;2023-03-11T00:07:16;2.30;99.90
22436;DHT22;11385;50.822;4.324;2023-03-11T00:09:43;2.30;99.90
22436;DHT22;11385;50.822;4.324;2023-03-11T00:12:09;2.30;99.90
22436;DHT22;11385;50.822;4.324;2023-03-11T00:14:36;2.30;99.90
22436;DHT22;11385;50.822;4.324;2023-03-11T00:17:03;2.30;99.90
22436;DHT22;11385;50.822;4.324;2023-03-11T00:19:29;2.30;99.90
22436;DHT22;11385;50.822;4.324;2023-03-11T00:21:57;2.30;99.90
22436;DHT22;11385;50.822;4.324;2023-03-11T00:24:24;2.20;99.90
22436;DHT22;11385;50.822;4.324;2023-03-11T00:26:51;2.10;99.90
22436;DHT22;11385;50.822;4.324;2023-03-11T00:29:18;2.10;99.90
22436;DHT22;11385;50.822;4.324;2023-03-11T00:31:45;2.00;99.90
22436;DHT22;11385;50.822;4.324;2023-03-11T00:34:12;2.10;99.90
22436;DHT22;11385;50.822;4.324;2023-03-11T00:36:38;2.10;99.90
22436;DHT22;11385;50.822;4.324;2023-03-11T00:39:08;2.10;99.90
22436;DHT22;11385;50.822;4.324;2023-03-11T00:41:36;2.10;99.90
22436;DHT22;11385;50.822;4.324;2023-03-11T00:44:03;2.20;99.90
22436;DHT22;11385;50.822;4.324;2023-03-11T00:46:29;2.10;99.90
22436;DHT22;11385;50.822;4.324;2023-03-11T00:48:56;2.10;99.90
22436;DHT22;11385;50.822;4.324;2023-03-11T00:51:23;2.10;99.90
22436;DHT22;11385;50.822;4.324;2023-03-11T00:53:50;2.00;99.90
22436;DHT22;11385;50.822;4.324;2023-03-11T00:56:17;2.00;99.90
22436;DHT22;11385;50.822;4.324;2023-03-11T00:58:44;2.00;99.90
22436;DHT22;11385;50.822;4.324;2023-03-11T01:01:14;2.00;99.90
22436;DHT22;11385;50.822;4.324;2023-03-11T01:03:42;2.00;99.90
22436;DHT22;11385;50.822;4.324;2023-03-11T01:06:10;2.00;99.90
22436;DHT22;11385;50.822;4.324;2023-03-11T01:08:37;2.00;99.90
22436;DHT22;11385;50.822;4.324;2023-03-11T01:11:05;1.90;99.90
22436;DHT22;11385;50.822;4.324;2023-03-11T01:13:33;1.90;99.90
22436;DHT22;11385;50.822;4.324;2023-03-11T01:15:59;1.80;99.90
22436;DHT22;11385;50.822;4.324;2023-03-11T01:18:26;1.90;99.90
22436;DHT22;11385;50.822;4.324;2023-03-11T01:20:54;1.90;99.90
22436;DHT22;11385;50.822;4.324;2023-03-11T01:23:21;2.00;99.90
22436;DHT22;11385;50.822;4.324;2023-03-11T01:25:48;1.90;99.90
22436;DHT22;11385;50.822;4.324;2023-03-11T01:28:17;1.90;99.90
22436;DHT22;11385;50.822;4.324;2023-03-11T01:30:45;1.80;99.90
22436;DHT22;11385;50.822;4.324;2023-03-11T01:33:16;1.90;99.90
22436;DHT22;11385;50.822;4.324;2023-03-11T01:35:43;1.90;99.90
22436;DHT22;11385;50.822;4.324;2023-03-11T01:38:10;1.80;99.90
22436;DHT22;11385;50.822;4.324;2023-03-11T01:40:45;1.90;99.90
22436;DHT22;11385;50.822;4.324;2023-03-11T01:46:10;2.00;99.90
22436;DHT22;11385;50.822;4.324;2023-03-11T01:48:36;2.00;99.90
22436;DHT22;11385;50.822;4.324;2023-03-11T01:51:04;1.80;99.90
22436;DHT22;11385;50.822;4.324;2023-03-11T01:53:34;1.90;99.90
22436;DHT22;11385;50.822;4.324;2023-03-11T01:56:02;1.80;99.90
22436;DHT22;11385;50.822;4.324;2023-03-11T01:58:34;1.90;99.90
22436;DHT22;11385;50.822;4.324;2023-03-11T02:01:02;1.90;99.90
22436;DHT22;11385;50.822;4.324;2023-03-11T02:03:33;1.90;99.90
22436;DHT22;11385;50.822;4.324;2023-03-11T02:06:01;1.90;99.90
22436;DHT22;11385;50.822;4.324;2023-03-11T02:08:30;1.90;99.90
22436;DHT22;11385;50.822;4.324;2023-03-11T02:11:02;1.90;99.90
22436;DHT22;11385;50.822;4.324;2023-03-11T02:13:32;1.90;99.90
22436;DHT22;11385;50.822;4.324;2023-03-11T02:16:02;1.90;99.90
22436;DHT22;11385;50.822;4.324;2023-03-11T02:18:29;1.80;99.90
22436;DHT22;11385;50.822;4.324;2023-03-11T02:21:04;1.90;99.90
22436;DHT22;11385;50.822;4.324;2023-03-11T02:23:38;2.00;99.90
22436;DHT22;11385;50.822;4.324;2023-03-11T02:26:12;2.00;99.90
22436;DHT22;11385;50.822;4.324;2023-03-11T02:28:39;2.00;99.90
22436;DHT22;11385;50.822;4.324;2023-03-11T02:31:06;2.00;99.90
22436;DHT22;11385;50.822;4.324;2023-03-11T02:33:34;2.10;99.90
22436;DHT22;11385;50.822;4.324;2023-03-11T02:36:02;2.00;99.90
22436;DHT22;11385;50.822;4.324;2023-03-11T02:38:30;2.10;99.90
22436;DHT22;11385;50.822;4.324;2023-03-11T02:41:00;2.00;99.90
22436;DHT22;11385;50.822;4.324;2023-03-11T02:43:38;2.10;99.90
22436;DHT22;11385;50.822;4.324;2023-03-11T02:46:07;2.10;99.90
22436;DHT22;11385;50.822;4.324;2023-03-11T02:48:37;2.10;99.90
22436;DHT22;11385;50.822;4.324;2023-03-11T02:51:04;2.20;99.90
22436;DHT22;11385;50.822;4.324;2023-03-11T02:53:34;2.10;99.90
22436;DHT22;11385;50.822;4.324;2023-03-11T02:56:01;2.10;99.90
22436;DHT22;11385;50.822;4.324;2023-03-11T02:58:28;2.00;99.90
22436;DHT22;11385;50.822;4.324;2023-03-11T03:00:55;2.00;99.90
22436;DHT22;11385;50.822;4.324;2023-03-11T03:03:21;2.00;99.90
22436;DHT22;11385;50.822;4.324;2023-03-11T03:05:48;2.00;99.90
22436;DHT22;11385;50.822;4.324;2023-03-11T03:08:16;2.00;99.90
22436;DHT22;11385;50.822;4.324;2023-03-11T03:10:43;2.00;99.90
22436;DHT22;11385;50.822;4.324;2023-03-11T03:13:09;2.00;99.90
22436;DHT22;11385;50.822;4.324;2023-03-11T03:15:36;2.00;99.90
22436;DHT22;11385;50.822;4.324;2023-03-11T03:18:03;2.00;99.90
22436;DHT22;11385;50.822;4.324;2023-03-11T03:20:30;2.00;99.90
22436;DHT22;11385;50.822;4.324;2023-03-11T03:22:56;2.10;99.90
22436;DHT22;11385;50.822;4.324;2023-03-11T03:25:23;2.10;99.90
22436;DHT22;11385;50.822;4.324;2023-03-11T03:27:50;2.10;99.90
22436;DHT22;11385;50.822;4.324;2023-03-11T03:30:17;2.20;99.90
22436;DHT22;11385;50.822;4.324;2023-03-11T03:32:44;2.20;99.90
22436;DHT22;11385;50.822;4.324;2023-03-11T03:35:11;2.20;99.90
22436;DHT22;11385;50.822;4.324;2023-03-11T03:37:38;2.20;99.90
22436;DHT22;11385;50.822;4.324;2023-03-11T03:40:06;2.10;99.90
22436;DHT22;11385;50.822;4.324;2023-03-11T03:42:37;2.10;99.90
22436;DHT22;11385;50.822;4.324;2023-03-11T03:45:06;2.10;99.90
22436;DHT22;11385;50.822;4.324;2023-03-11T03:47:34;2.10;99.90
22436;DHT22;11385;50.822;4.324;2023-03-11T03:50:03;2.10;99.90
22436;DHT22;11385;50.822;4.324;2023-03-11T03:52:30;2.00;99.90
22436;DHT22;11385;50.822;4.324;2023-03-11T03:54:57;2.20;99.90
22436;DHT22;11385;50.822;4.324;2023-03-11T03:57:24;2.20;99.90
22436;DHT22;11385;50.822;4.324;2023-03-11T03:59:50;2.20;99.90
22436;DHT22;11385;50.822;4.324;2023-03-11T04:02:17;2.10;99.90
22436;DHT22;11385;50.822;4.324;2023-03-11T04:04:43;2.20;99.90
22436;DHT22;11385;50.822;4.324;2023-03-11T04:07:10;2.20;99.90
22436;DHT22;11385;50.822;4.324;2023-03-11T04:09:40;2.20;99.90
22436;DHT22;11385;50.822;4.324;2023-03-11T04:12:12;2.10;99.90
22436;DHT22;11385;50.822;4.324;2023-03-11T04:14:40;2.20;99.90
22436;DHT22;11385;50.822;4.324;2023-03-11T04:17:10;2.20;99.90
22436;DHT22;11385;50.822;4.324;2023-03-11T04:19:37;2.10;99.90
22436;DHT22;11385;50.822;4.324;2023-03-11T04:22:04;2.10;99.90
22436;DHT22;11385;50.822;4.324;2023-03-11T04:24:31;2.00;99.90
22436;DHT22;11385;50.822;4.324;2023-03-11T04:26:57;1.90;99.90
22436;DHT22;11385;50.822;4.324;2023-03-11T04:29:24;1.80;99.90
22436;DHT22;11385;50.822;4.324;2023-03-11T04:31:50;1.80;99.90
22436;DHT22;11385;50.822;4.324;2023-03-11T04:34:18;1.80;99.90
22436;DHT22;11385;50.822;4.324;2023-03-11T04:36:45;1.80;99.90
22436;DHT22;11385;50.822;4.324;2023-03-11T04:39:11;1.80;99.90
22436;DHT22;11385;50.822;4.324;2023-03-11T04:41:40;1.70;99.90
22436;DHT22;11385;50.822;4.324;2023-03-11T04:44:06;1.70;99.90
22436;DHT22;11385;50.822;4.324;2023-03-11T04:46:33;1.80;99.90
22436;DHT22;11385;50.822;4.324;2023-03-11T04:49:00;1.80;99.90
22436;DHT22;11385;50.822;4.324;2023-03-11T04:51:26;1.80;99.90
22436;DHT22;11385;50.822;4.324;2023-03-11T04:53:53;1.70;99.90
22436;DHT22;11385;50.822;4.324;2023-03-11T04:56:20;1.70;99.90
22436;DHT22;11385;50.822;4.324;2023-03-11T04:58:46;1.70;99.90
22436;DHT22;11385;50.822;4.324;2023-03-11T05:01:13;1.70;99.90
22436;DHT22;11385;50.822;4.324;2023-03-11T05:03:40;1.70;99.90
22436;DHT22;11385;50.822;4.324;2023-03-11T05:06:06;1.70;99.90
22436;DHT22;11385;50.822;4.324;2023-03-11T05:08:33;1.60;99.90
22436;DHT22;11385;50.822;4.324;2023-03-11T05:11:00;1.60;99.90
22436;DHT22;11385;50.822;4.324;2023-03-11T05:13:27;1.50;99.90
22436;DHT22;11385;50.822;4.324;2023-03-11T05:15:54;1.50;99.90
22436;DHT22;11385;50.822;4.324;2023-03-11T05:18:21;1.50;99.90
22436;DHT22;11385;50.822;4.324;2023-03-11T05:20:47;1.50;99.90
22436;DHT22;11385;50.822;4.324;2023-03-11T05:23:14;1.50;99.90
22436;DHT22;11385;50.822;4.324;2023-03-11T05:25:42;1.50;99.90
22436;DHT22;11385;50.822;4.324;2023-03-11T05:28:08;1.50;99.90
22436;DHT22;11385;50.822;4.324;2023-03-11T05:30:35;1.50;99.90
22436;DHT22;11385;50.822;4.324;2023-03-11T05:33:02;1.60;99.90
22436;DHT22;11385;50.822;4.324;2023-03-11T05:35:29;1.50;99.90
22436;DHT22;11385;50.822;4.324;2023-03-11T05:37:55;1.50;99.90
22436;DHT22;11385;50.822;4.324;2023-03-11T05:40:22;1.60;99.90
22436;DHT22;11385;50.822;4.324;2023-03-11T05:42:49;1.60;99.90
22436;DHT22;11385;50.822;4.324;2023-03-11T05:45:16;1.60;99.90
22436;DHT22;11385;50.822;4.324;2023-03-11T05:47:43;1.50;99.90
22436;DHT22;11385;50.822;4.324;2023-03-11T05:50:11;1.50;99.90
22436;DHT22;11385;50.822;4.324;2023-03-11T05:52:38;1.50;99.90
22436;DHT22;11385;50.822;4.324;2023-03-11T05:55:05;1.50;99.90
22436;DHT22;11385;50.822;4.324;2023-03-11T05:57:32;1.50;99.90
22436;DHT22;11385;50.822;4.324;2023-03-11T05:59:58;1.50;99.90
22436;DHT22;11385;50.822;4.324;2023-03-11T06:02:25;1.50;99.90
22436;DHT22;11385;50.822;4.324;2023-03-11T06:04:52;1.50;99.90
22436;DHT22;11385;50.822;4.324;2023-03-11T06:07:18;1.50;99.90
22436;DHT22;11385;50.822;4.324;2023-03-11T06:09:45;1.50;99.90
22436;DHT22;11385;50.822;4.324;2023-03-11T06:12:12;1.50;99.90
22436;DHT22;11385;50.822;4.324;2023-03-11T06:14:39;1.50;99.90
22436;DHT22;11385;50.822;4.324;2023-03-11T06:17:05;1.50;99.90
22436;DHT22;11385;50.822;4.324;2023-03-11T06:19:32;1.50;99.90
22436;DHT22;11385;50.822;4.324;2023-03-11T06:21:59;1.50;99.90
22436;DHT22;11385;50.822;4.324;2023-03-11T06:24:26;1.50;99.90
22436;DHT22;11385;50.822;4.324;2023-03-11T06:26:52;1.50;99.90
22436;DHT22;11385;50.822;4.324;2023-03-11T06:29:19;1.50;99.90
22436;DHT22;11385;50.822;4.324;2023-03-11T06:31:48;1.50;99.90
22436;DHT22;11385;50.822;4.324;2023-03-11T06:34:15;1.50;99.90
22436;DHT22;11385;50.822;4.324;2023-03-11T06:36:42;1.50;99.90
22436;DHT22;11385;50.822;4.324;2023-03-11T06:39:11;1.50;99.90
22436;DHT22;11385;50.822;4.324;2023-03-11T06:41:39;1.60;99.90
22436;DHT22;11385;50.822;4.324;2023-03-11T06:44:05;1.50;99.90
22436;DHT22;11385;50.822;4.324;2023-03-11T06:46:33;1.60;99.90
22436;DHT22;11385;50.822;4.324;2023-03-11T06:48:59;1.60;99.90
22436;DHT22;11385;50.822;4.324;2023-03-11T06:51:26;1.70;99.90
22436;DHT22;11385;50.822;4.324;2023-03-11T06:53:53;1.70;99.90
22436;DHT22;11385;50.822;4.324;2023-03-11T06:56:21;1.70;99.90
22436;DHT22;11385;50.822;4.324;2023-03-11T06:58:49;1.80;99.90
22436;DHT22;11385;50.822;4.324;2023-03-11T07:01:21;1.80;99.90
22436;DHT22;11385;50.822;4.324;2023-03-11T07:03:49;1.80;99.90
22436;DHT22;11385;50.822;4.324;2023-03-11T07:06:20;1.90;99.90
22436;DHT22;11385;50.822;4.324;2023-03-11T07:08:48;1.90;99.90
22436;DHT22;11385;50.822;4.324;2023-03-11T07:11:18;1.90;99.90
22436;DHT22;11385;50.822;4.324;2023-03-11T07:13:46;1.90;99.90
22436;DHT22;11385;50.822;4.324;2023-03-11T07:16:20;1.90;99.90
22436;DHT22;11385;50.822;4.324;2023-03-11T07:18:50;1.90;99.90
22436;DHT22;11385;50.822;4.324;2023-03-11T07:21:18;2.00;99.90
22436;DHT22;11385;50.822;4.324;2023-03-11T07:23:48;2.00;99.90
22436;DHT22;11385;50.822;4.324;2023-03-11T07:26:16;2.10;99.90
22436;DHT22;11385;50.822;4.324;2023-03-11T07:28:43;2.10;99.90
22436;DHT22;11385;50.822;4.324;2023-03-11T07:31:13;2.10;99.90
22436;DHT22;11385;50.822;4.324;2023-03-11T07:33:40;2.10;99.90
22436;DHT22;11385;50.822;4.324;2023-03-11T07:36:09;2.30;99.90
22436;DHT22;11385;50.822;4.324;2023-03-11T07:38:37;2.30;99.90
22436;DHT22;11385;50.822;4.324;2023-03-11T07:41:04;2.30;99.90
22436;DHT22;11385;50.822;4.324;2023-03-11T07:43:32;2.30;99.90
22436;DHT22;11385;50.822;4.324;2023-03-11T07:46:05;2.30;99.90
22436;DHT22;11385;50.822;4.324;2023-03-11T07:48:34;2.40;99.90
22436;DHT22;11385;50.822;4.324;2023-03-11T07:51:06;2.40;99.90
22436;DHT22;11385;50.822;4.324;2023-03-11T07:53:33;2.40;99.90
22436;DHT22;11385;50.822;4.324;2023-03-11T07:56:00;2.50;99.90
22436;DHT22;11385;50.822;4.324;2023-03-11T07:58:28;2.50;99.90
22436;DHT22;11385;50.822;4.324;2023-03-11T08:00:55;2.40;99.90
22436;DHT22;11385;50.822;4.324;2023-03-11T08:03:25;2.50;99.90
22436;DHT22;11385;50.822;4.324;2023-03-11T08:05:51;2.60;99.90
22436;DHT22;11385;50.822;4.324;2023-03-11T08:08:18;2.70;99.90
22436;DHT22;11385;50.822;4.324;2023-03-11T08:10:45;2.70;99.90
22436;DHT22;11385;50.822;4.324;2023-03-11T08:13:12;2.80;99.90
22436;DHT22;11385;50.822;4.324;2023-03-11T08:15:42;2.80;99.90
22436;DHT22;11385;50.822;4.324;2023-03-11T08:18:09;3.00;99.90
22436;DHT22;11385;50.822;4.324;2023-03-11T08:20:37;3.10;99.90
22436;DHT22;11385;50.822;4.324;2023-03-11T08:23:04;3.10;99.90
22436;DHT22;11385;50.822;4.324;2023-03-11T08:25:31;3.00;99.90
22436;DHT22;11385;50.822;4.324;2023-03-11T08:27:59;3.10;99.90
22436;DHT22;11385;50.822;4.324;2023-03-11T08:30:25;3.30;99.90
22436;DHT22;11385;50.822;4.324;2023-03-11T08:32:52;3.40;99.90
22436;DHT22;11385;50.822;4.324;2023-03-11T08:35:19;3.40;99.90
22436;DHT22;11385;50.822;4.324;2023-03-11T08:37:45;3.60;99.90
22436;DHT22;11385;50.822;4.324;2023-03-11T08:40:13;3.50;99.90
22436;DHT22;11385;50.822;4.324;2023-03-11T08:42:40;3.50;99.90
22436;DHT22;11385;50.822;4.324;2023-03-11T08:45:08;3.50;99.90
22436;DHT22;11385;50.822;4.324;2023-03-11T08:47:36;3.70;99.90
22436;DHT22;11385;50.822;4.324;2023-03-11T08:50:06;3.80;99.90
22436;DHT22;11385;50.822;4.324;2023-03-11T08:52:34;3.80;99.90
22436;DHT22;11385;50.822;4.324;2023-03-11T08:55:01;3.80;99.90
22436;DHT22;11385;50.822;4.324;2023-03-11T08:57:31;3.90;99.90
22436;DHT22;11385;50.822;4.324;2023-03-11T08:59:58;4.00;99.90
22436;DHT22;11385;50.822;4.324;2023-03-11T09:02:25;4.00;99.90
22436;DHT22;11385;50.822;4.324;2023-03-11T09:04:52;4.10;99.90
22436;DHT22;11385;50.822;4.324;2023-03-11T09:07:19;4.20;99.90
22436;DHT22;11385;50.822;4.324;2023-03-11T09:09:45;4.30;99.90
22436;DHT22;11385;50.822;4.324;2023-03-11T09:12:12;4.30;99.90
22436;DHT22;11385;50.822;4.324;2023-03-11T09:14:41;4.30;99.90
22436;DHT22;11385;50.822;4.324;2023-03-11T09:17:08;4.30;99.90
22436;DHT22;11385;50.822;4.324;2023-03-11T09:19:37;4.50;99.90
22436;DHT22;11385;50.822;4.324;2023-03-11T09:22:04;4.60;99.90
22436;DHT22;11385;50.822;4.324;2023-03-11T09:24:32;4.70;99.90
22436;DHT22;11385;50.822;4.324;2023-03-11T09:27:00;4.80;99.90
22436;DHT22;11385;50.822;4.324;2023-03-11T09:29:28;4.90;99.90
22436;DHT22;11385;50.822;4.324;2023-03-11T09:31:55;5.00;99.90
22436;DHT22;11385;50.822;4.324;2023-03-11T09:34:22;5.20;99.90
22436;DHT22;11385;50.822;4.324;2023-03-11T10:29:15;6.70;99.90
22436;DHT22;11385;50.822;4.324;2023-03-11T10:41:56;6.80;99.90
22436;DHT22;11385;50.822;4.324;2023-03-11T10:54:34;7.30;99.90
22436;DHT22;11385;50.822;4.324;2023-03-11T10:57:21;7.50;99.90
22436;DHT22;11385;50.822;4.324;2023-03-11T11:00:14;7.70;99.90
22436;DHT22;11385;50.822;4.324;2023-03-11T11:02:56;8.20;99.90
22436;DHT22;11385;50.822;4.324;2023-03-11T11:05:35;8.30;99.90
22436;DHT22;11385;50.822;4.324;2023-03-11T11:08:15;7.50;99.90
22436;DHT22;11385;50.822;4.324;2023-03-11T11:10:54;8.00;99.90
22436;DHT22;11385;50.822;4.324;2023-03-11T11:13:33;8.20;99.90
22436;DHT22;11385;50.822;4.324;2023-03-11T11:16:18;8.20;99.90
22436;DHT22;11385;50.822;4.324;2023-03-11T11:19:03;8.00;99.90
22436;DHT22;11385;50.822;4.324;2023-03-11T11:21:46;8.20;99.90
22436;DHT22;11385;50.822;4.324;2023-03-11T11:24:27;8.30;99.90
22436;DHT22;11385;50.822;4.324;2023-03-11T11:27:10;8.70;99.90
22436;DHT22;11385;50.822;4.324;2023-03-11T11:32:33;9.20;99.90
22436;DHT22;11385;50.822;4.324;2023-03-11T11:35:16;9.30;99.90
22436;DHT22;11385;50.822;4.324;2023-03-11T11:37:58;9.10;99.90
22436;DHT22;11385;50.822;4.324;2023-03-11T11:40:35;9.00;99.90
22436;DHT22;11385;50.822;4.324;2023-03-11T11:43:17;9.00;99.90
22436;DHT22;11385;50.822;4.324;2023-03-11T11:48:45;8.70;99.90
22436;DHT22;11385;50.822;4.324;2023-03-11T11:51:15;8.80;99.90
22436;DHT22;11385;50.822;4.324;2023-03-11T11:53:49;8.60;99.90
22436;DHT22;11385;50.822;4.324;2023-03-11T11:56:14;8.80;99.90
22436;DHT22;11385;50.822;4.324;2023-03-11T11:58:41;8.70;99.90
22436;DHT22;11385;50.822;4.324;2023-03-11T12:01:17;8.40;99.90
22436;DHT22;11385;50.822;4.324;2023-03-11T12:07:00;7.70;99.90
22436;DHT22;11385;50.822;4.324;2023-03-11T12:12:41;7.50;99.90
22436;DHT22;11385;50.822;4.324;2023-03-11T12:15:14;7.70;99.90
22436;DHT22;11385;50.822;4.324;2023-03-11T12:17:44;7.90;99.90
22436;DHT22;11385;50.822;4.324;2023-03-11T12:20:21;8.10;99.90
22436;DHT22;11385;50.822;4.324;2023-03-11T12:24:16;8.30;99.90
22436;DHT22;11385;50.822;4.324;2023-03-11T12:28:47;8.30;99.90
22436;DHT22;11385;50.822;4.324;2023-03-11T12:31:16;8.40;99.90
22436;DHT22;11385;50.822;4.324;2023-03-11T12:33:47;8.40;99.90
22436;DHT22;11385;50.822;4.324;2023-03-11T12:36:22;8.60;99.90
22436;DHT22;11385;50.822;4.324;2023-03-11T12:38:50;8.60;99.90
22436;DHT22;11385;50.822;4.324;2023-03-11T12:41:30;8.80;99.90
22436;DHT22;11385;50.822;4.324;2023-03-11T12:44:01;8.60;99.90
22436;DHT22;11385;50.822;4.324;2023-03-11T12:49:36;8.50;99.90
22436;DHT22;11385;50.822;4.324;2023-03-11T12:52:18;8.60;99.90
22436;DHT22;11385;50.822;4.324;2023-03-11T12:54:48;8.20;99.90
22436;DHT22;11385;50.822;4.324;2023-03-11T12:57:30;8.20;99.90
22436;DHT22;11385;50.822;4.324;2023-03-11T13:08:13;7.50;99.90
22436;DHT22;11385;50.822;4.324;2023-03-11T13:10:44;7.70;99.90
22436;DHT22;11385;50.822;4.324;2023-03-11T13:13:37;7.50;99.90
22436;DHT22;11385;50.822;4.324;2023-03-11T13:18:57;7.50;99.90
22436;DHT22;11385;50.822;4.324;2023-03-11T13:21:41;7.70;99.90
22436;DHT22;11385;50.822;4.324;2023-03-11T13:33:19;7.50;99.90
22436;DHT22;11385;50.822;4.324;2023-03-11T13:36:05;7.50;99.90
22436;DHT22;11385;50.822;4.324;2023-03-11T13:41:30;7.60;99.90
22436;DHT22;11385;50.822;4.324;2023-03-11T13:44:10;7.80;99.90
22436;DHT22;11385;50.822;4.324;2023-03-11T13:46:36;7.90;99.90
22436;DHT22;11385;50.822;4.324;2023-03-11T13:49:11;8.00;99.90
22436;DHT22;11385;50.822;4.324;2023-03-11T13:51:40;8.10;99.90
22436;DHT22;11385;50.822;4.324;2023-03-11T13:54:19;8.00;99.90
22436;DHT22;11385;50.822;4.324;2023-03-11T13:56:51;8.10;99.90
22436;DHT22;11385;50.822;4.324;2023-03-11T13:59:23;7.90;99.90
22436;DHT22;11385;50.822;4.324;2023-03-11T14:01:59;7.90;99.90
22436;DHT22;11385;50.822;4.324;2023-03-11T14:04:30;7.80;99.90
22436;DHT22;11385;50.822;4.324;2023-03-11T14:06:58;7.80;99.90
22436;DHT22;11385;50.822;4.324;2023-03-11T14:09:27;7.90;99.90
22436;DHT22;11385;50.822;4.324;2023-03-11T14:12:02;7.80;99.90
22436;DHT22;11385;50.822;4.324;2023-03-11T14:14:34;7.60;99.90
22436;DHT22;11385;50.822;4.324;2023-03-11T14:17:19;7.60;99.90
22436;DHT22;11385;50.822;4.324;2023-03-11T14:20:21;7.60;99.90
22436;DHT22;11385;50.822;4.324;2023-03-11T14:22:52;7.70;99.90
22436;DHT22;11385;50.822;4.324;2023-03-11T14:25:26;7.70;99.90
22436;DHT22;11385;50.822;4.324;2023-03-11T14:27:56;7.70;99.90
22436;DHT22;11385;50.822;4.324;2023-03-11T14:30:27;7.70;99.90
22436;DHT22;11385;50.822;4.324;2023-03-11T14:32:58;7.80;99.90
22436;DHT22;11385;50.822;4.324;2023-03-11T14:35:26;7.80;99.90
22436;DHT22;11385;50.822;4.324;2023-03-11T14:37:52;7.80;99.90
22436;DHT22;11385;50.822;4.324;2023-03-11T14:40:26;7.60;99.90
22436;DHT22;11385;50.822;4.324;2023-03-11T14:42:58;7.60;99.90
22436;DHT22;11385;50.822;4.324;2023-03-11T14:45:28;7.70;99.90
22436;DHT22;11385;50.822;4.324;2023-03-11T14:48:06;7.70;99.90
22436;DHT22;11385;50.822;4.324;2023-03-11T14:50:35;8.00;99.90
22436;DHT22;11385;50.822;4.324;2023-03-11T14:55:58;8.00;99.90
22436;DHT22;11385;50.822;4.324;2023-03-11T14:58:38;8.20;99.90
22436;DHT22;11385;50.822;4.324;2023-03-11T15:01:27;8.40;99.90
22436;DHT22;11385;50.822;4.324;2023-03-11T15:03:58;8.60;99.90
22436;DHT22;11385;50.822;4.324;2023-03-11T15:06:27;8.70;99.90
22436;DHT22;11385;50.822;4.324;2023-03-11T15:09:01;8.50;99.90
22436;DHT22;11385;50.822;4.324;2023-03-11T15:11:28;8.50;99.90
22436;DHT22;11385;50.822;4.324;2023-03-11T15:16:32;8.60;99.90
22436;DHT22;11385;50.822;4.324;2023-03-11T15:19:19;8.20;99.90
22436;DHT22;11385;50.822;4.324;2023-03-11T15:21:30;8.30;99.90
22436;DHT22;11385;50.822;4.324;2023-03-11T15:24:01;8.40;99.90
22436;DHT22;11385;50.822;4.324;2023-03-11T15:29:30;8.80;99.90
22436;DHT22;11385;50.822;4.324;2023-03-11T15:31:57;8.80;99.90
22436;DHT22;11385;50.822;4.324;2023-03-11T15:34:29;8.80;99.90
22436;DHT22;11385;50.822;4.324;2023-03-11T15:36:59;8.80;99.90
22436;DHT22;11385;50.822;4.324;2023-03-11T15:39:44;8.60;99.90
22436;DHT22;11385;50.822;4.324;2023-03-11T15:42:17;8.60;99.90
22436;DHT22;11385;50.822;4.324;2023-03-11T15:45:00;8.60;99.90
22436;DHT22;11385;50.822;4.324;2023-03-11T15:47:28;8.60;99.90
22436;DHT22;11385;50.822;4.324;2023-03-11T15:49:55;8.50;99.90
22436;DHT22;11385;50.822;4.324;2023-03-11T15:52:22;8.30;99.90
22436;DHT22;11385;50.822;4.324;2023-03-11T15:54:48;8.60;99.90
22436;DHT22;11385;50.822;4.324;2023-03-11T15:57:23;8.50;99.90
22436;DHT22;11385;50.822;4.324;2023-03-11T15:59:50;8.60;99.90
22436;DHT22;11385;50.822;4.324;2023-03-11T16:02:21;8.80;99.90
22436;DHT22;11385;50.822;4.324;2023-03-11T16:04:49;8.70;99.90
22436;DHT22;11385;50.822;4.324;2023-03-11T16:07:16;8.80;99.90
22436;DHT22;11385;50.822;4.324;2023-03-11T16:09:46;8.70;99.90
22436;DHT22;11385;50.822;4.324;2023-03-11T16:12:17;8.60;99.90
22436;DHT22;11385;50.822;4.324;2023-03-11T16:14:45;8.70;99.90
22436;DHT22;11385;50.822;4.324;2023-03-11T16:17:12;8.80;99.90
22436;DHT22;11385;50.822;4.324;2023-03-11T16:19:41;8.50;99.90
22436;DHT22;11385;50.822;4.324;2023-03-11T16:22:19;8.60;99.90
22436;DHT22;11385;50.822;4.324;2023-03-11T16:24:51;8.80;99.90
22436;DHT22;11385;50.822;4.324;2023-03-11T16:33:47;8.90;99.90
22436;DHT22;11385;50.822;4.324;2023-03-11T16:39:51;9.00;99.90
22436;DHT22;11385;50.822;4.324;2023-03-11T16:42:21;8.90;99.90
22436;DHT22;11385;50.822;4.324;2023-03-11T16:44:52;8.50;99.90
22436;DHT22;11385;50.822;4.324;2023-03-11T16:47:19;8.30;99.90
22436;DHT22;11385;50.822;4.324;2023-03-11T16:49:46;8.20;99.90
22436;DHT22;11385;50.822;4.324;2023-03-11T16:52:15;8.30;99.90
22436;DHT22;11385;50.822;4.324;2023-03-11T16:54:43;8.40;99.90
22436;DHT22;11385;50.822;4.324;2023-03-11T16:57:12;8.40;99.90
22436;DHT22;11385;50.822;4.324;2023-03-11T16:59:53;8.40;99.90
22436;DHT22;11385;50.822;4.324;2023-03-11T17:02:20;8.50;99.90
22436;DHT22;11385;50.822;4.324;2023-03-11T17:04:47;8.60;99.90
22436;DHT22;11385;50.822;4.324;2023-03-11T17:07:27;8.80;99.90
22436;DHT22;11385;50.822;4.324;2023-03-11T17:09:54;8.40;99.90
22436;DHT22;11385;50.822;4.324;2023-03-11T17:12:21;8.60;99.90
22436;DHT22;11385;50.822;4.324;2023-03-11T17:20:59;9.10;99.90
22436;DHT22;11385;50.822;4.324;2023-03-11T17:23:28;9.00;99.90
22436;DHT22;11385;50.822;4.324;2023-03-11T17:25:54;9.00;99.90
22436;DHT22;11385;50.822;4.324;2023-03-11T17:28:21;8.70;99.90
22436;DHT22;11385;50.822;4.324;2023-03-11T17:33:53;8.40;99.90
22436;DHT22;11385;50.822;4.324;2023-03-11T17:36:20;8.40;99.90
22436;DHT22;11385;50.822;4.324;2023-03-11T17:38:50;8.40;99.90
22436;DHT22;11385;50.822;4.324;2023-03-11T17:41:16;8.20;99.90
22436;DHT22;11385;50.822;4.324;2023-03-11T17:43:43;8.30;99.90
22436;DHT22;11385;50.822;4.324;2023-03-11T17:46:14;8.30;99.90
22436;DHT22;11385;50.822;4.324;2023-03-11T17:48:42;8.30;99.90
22436;DHT22;11385;50.822;4.324;2023-03-11T17:51:14;8.10;99.90
22436;DHT22;11385;50.822;4.324;2023-03-11T17:53:42;7.90;99.90
22436;DHT22;11385;50.822;4.324;2023-03-11T17:56:11;7.70;99.90
22436;DHT22;11385;50.822;4.324;2023-03-11T17:58:59;7.60;99.90
22436;DHT22;11385;50.822;4.324;2023-03-11T18:01:40;7.70;99.90
22436;DHT22;11385;50.822;4.324;2023-03-11T18:04:17;7.60;99.90
22436;DHT22;11385;50.822;4.324;2023-03-11T18:06:44;7.70;99.90
22436;DHT22;11385;50.822;4.324;2023-03-11T18:09:10;7.90;99.90
22436;DHT22;11385;50.822;4.324;2023-03-11T18:11:37;7.80;99.90
22436;DHT22;11385;50.822;4.324;2023-03-11T18:14:04;7.80;99.90
22436;DHT22;11385;50.822;4.324;2023-03-11T18:16:32;7.70;99.90
22436;DHT22;11385;50.822;4.324;2023-03-11T18:18:59;7.60;99.90
22436;DHT22;11385;50.822;4.324;2023-03-11T18:21:27;7.60;99.90
22436;DHT22;11385;50.822;4.324;2023-03-11T18:23:57;7.50;99.90
22436;DHT22;11385;50.822;4.324;2023-03-11T18:26:26;7.60;99.90